Terminal Aerodrome Forecast
Issued by NWS

Home | Current Version | Previous Version | Graphics & Text | Print | Product List | Glossary On
Versions: 1 2 3 4 5 6 7 8 9 10 11 12 13 14 15 16 17 18 19 20 21 22 23 24 25 26 27 28
000
FTUS43 KABR 241700
TAFMBG
TAF
KMBG 241740Z 2418/2518 35009KT P6SM OVC025
     FM242300 03006KT 3SM -SN OVC030
     FM250100 09010KT 1SM -SN OVC015
     FM250300 10009KT 1/2SM SN OVC009
     FM251200 05015KT 3/4SM -SN OVC009=

USA.gov is the U.S. government's official web portal to all federal, state and local government web resources and services.